Terminal Aerodrome Forecast
Issued by NWS

Home | Current Version | Previous Version | Text Only | Print | Product List | Glossary On
Versions: 1 2 3 4 5 6 7 8 9 10 11 12
000
FTUS41 KBTV 240523
TAFMSS
TAF
KMSS 240523Z 2406/2506 22012G20KT P6SM BKN120 WS020/26050KT
     FM241200 23014G22KT P6SM SCT120
     FM241600 24016G26KT P6SM SCT120
     FM250100 22010KT P6SM SKC=

USA.gov is the U.S. government's official web portal to all federal, state and local government web resources and services.